createdAt,value
2023-09-01T00:01:06.261Z,100573.63
2023-09-01T00:04:08.128Z,100580.97
2023-09-01T00:07:10.094Z,100577.19
2023-09-01T00:10:11.951Z,100583.25
2023-09-01T00:13:14.060Z,100578.00
2023-09-01T00:16:15.974Z,100579.06
2023-09-01T00:19:17.686Z,100584.97
2023-09-01T00:22:19.512Z,100587.50
2023-09-01T00:25:21.246Z,100584.16
2023-09-01T00:28:24.052Z,100587.94
2023-09-01T00:31:25.751Z,100590.28
2023-09-01T00:34:27.781Z,100603.09
2023-09-01T00:37:29.807Z,100599.53
2023-09-01T00:40:31.533Z,100598.91
2023-09-01T00:43:33.517Z,100596.63
2023-09-01T00:46:39.641Z,100598.53
2023-09-01T00:49:46.738Z,100594.97
2023-09-01T00:52:48.761Z,100609.47
2023-09-01T00:55:52.488Z,100605.22
2023-09-01T00:58:54.178Z,100611.09
2023-09-01T01:01:56.142Z,100601.00
2023-09-01T01:04:58.585Z,100602.50
2023-09-01T01:08:16.603Z,100605.22
2023-09-01T01:11:30.621Z,100607.28
2023-09-01T01:14:41.251Z,100607.06
2023-09-01T01:17:46.063Z,100608.09
2023-09-01T01:20:50.775Z,100612.28
2023-09-01T01:23:53.027Z,100606.63
2023-09-01T01:26:54.648Z,100613.34
2023-09-01T01:29:56.659Z,100609.78
2023-09-01T01:32:58.490Z,100611.00
2023-09-01T01:36:18.518Z,100612.06
2023-09-01T01:39:26.403Z,100612.28
2023-09-01T01:42:30.667Z,100608.50
2023-09-01T01:45:33.004Z,100611.44
2023-09-01T01:48:37.600Z,100607.66
2023-09-01T01:51:39.311Z,100609.34
2023-09-01T01:54:41.112Z,100615.63
2023-09-01T01:57:43.138Z,100612.91
2023-09-01T02:00:44.831Z,100610.78
2023-09-01T02:03:46.560Z,100618.97
2023-09-01T02:06:48.500Z,100624.41
2023-09-01T02:09:50.263Z,100623.09
2023-09-01T02:12:51.982Z,100630.00
2023-09-01T02:15:54.579Z,100630.16
2023-09-01T02:18:56.364Z,100630.75
2023-09-01T02:21:58.094Z,100636.59
2023-09-01T02:24:59.758Z,100638.00
2023-09-01T02:28:01.432Z,100634.44
2023-09-01T02:31:09.016Z,100640.91
2023-09-01T02:34:11.372Z,100632.50
2023-09-01T02:37:13.035Z,100631.25
2023-09-01T02:40:14.775Z,100632.25
2023-09-01T02:43:16.400Z,100624.28
2023-09-01T02:46:18.474Z,100637.91
2023-09-01T02:49:20.157Z,100634.34
2023-09-01T02:52:21.858Z,100633.50
2023-09-01T02:55:24.330Z,100635.84
2023-09-01T02:58:26.745Z,100640.03
2023-09-01T03:01:28.421Z,100644.44
2023-09-01T03:04:30.030Z,100637.53
2023-09-01T03:07:31.686Z,100587.47
2023-09-01T03:10:33.466Z,100634.31
2023-09-01T03:13:35.476Z,100633.47
2023-09-01T03:16:38.230Z,100635.16
2023-09-01T03:19:39.888Z,100635.09
2023-09-01T03:22:41.902Z,100640.28
2023-09-01T03:25:43.651Z,100633.16
2023-09-01T03:28:45.406Z,100630.41
2023-09-01T03:31:47.127Z,100634.00
2023-09-01T03:34:49.155Z,100638.25
2023-09-01T03:37:50.917Z,100644.75
2023-09-01T03:40:52.752Z,100645.91
2023-09-01T03:43:55.304Z,100650.03
2023-09-01T03:46:57.513Z,100648.22
2023-09-01T03:49:59.199Z,100643.97
2023-09-01T03:53:00.860Z,100650.50
2023-09-01T03:56:13.389Z,100658.91
2023-09-01T03:59:15.144Z,100653.25
2023-09-01T04:02:16.874Z,100661.47
2023-09-01T04:05:18.654Z,100655.03
2023-09-01T04:08:20.362Z,100649.63
2023-09-01T04:11:22.107Z,100651.56
2023-09-01T04:14:23.754Z,100653.81
2023-09-01T04:17:25.475Z,100656.25
2023-09-01T04:20:27.134Z,100655.03
2023-09-01T04:23:29.111Z,100659.53
2023-09-01T04:26:42.609Z,100657.25
2023-09-01T04:29:59.254Z,100658.00
2023-09-01T04:33:09.461Z,100662.59
2023-09-01T04:36:11.222Z,100666.63
2023-09-01T04:39:12.883Z,100671.88
2023-09-01T04:42:14.744Z,100662.88
2023-09-01T04:45:17.023Z,100670.00
2023-09-01T04:48:18.751Z,100669.25
2023-09-01T04:51:20.432Z,100668.41
2023-09-01T04:54:22.167Z,100664.66
2023-09-01T04:57:27.740Z,100659.22
2023-09-01T05:00:29.355Z,100658.72
2023-09-01T05:03:31.051Z,100663.56
2023-09-01T05:06:32.785Z,100669.22
2023-09-01T05:09:34.524Z,100670.31
2023-09-01T05:12:36.486Z,100676.63
2023-09-01T05:15:38.434Z,100680.22
2023-09-01T05:18:40.107Z,100683.16
2023-09-01T05:21:41.894Z,100688.19
2023-09-01T05:24:43.722Z,100685.44
2023-09-01T05:27:45.725Z,100682.69
2023-09-01T05:30:47.494Z,100692.38
2023-09-01T05:33:49.210Z,100687.59
2023-09-01T05:36:51.022Z,100691.94
2023-09-01T05:39:52.751Z,100688.84
2023-09-01T05:42:54.550Z,100690.34
2023-09-01T05:46:05.569Z,100690.81
2023-09-01T05:49:07.327Z,100687.72
2023-09-01T05:52:09.157Z,100685.41
2023-09-01T05:55:10.998Z,100689.81
2023-09-01T05:58:14.155Z,100702.03
2023-09-01T06:01:22.651Z,100699.94
2023-09-01T06:04:24.847Z,100707.06
2023-09-01T06:07:26.768Z,100700.56
2023-09-01T06:10:29.570Z,100712.50
2023-09-01T06:13:31.840Z,100708.31
2023-09-01T06:16:33.573Z,100700.31
2023-09-01T06:19:35.366Z,100704.94
2023-09-01T06:22:47.848Z,100713.53
2023-09-01T06:25:54.261Z,100709.16
2023-09-01T06:28:56.601Z,100700.53
2023-09-01T06:31:58.393Z,100696.34
2023-09-01T06:35:00.752Z,100694.66
2023-09-01T06:38:06.813Z,100698.03
2023-09-01T06:41:08.978Z,100690.47
2023-09-01T06:44:11.048Z,100690.44
2023-09-01T06:47:13.087Z,100699.06
2023-09-01T06:50:14.819Z,100709.44
2023-09-01T06:53:17.132Z,100714.59
2023-09-01T06:56:22.002Z,100710.03
2023-09-01T06:59:25.331Z,100725.16
2023-09-01T07:02:27.416Z,100723.97
2023-09-01T07:05:29.163Z,100729.63
2023-09-01T07:08:31.729Z,100735.09
2023-09-01T07:11:33.462Z,100732.59
2023-09-01T07:14:35.688Z,100733.19
2023-09-01T07:17:37.543Z,100740.62
2023-09-01T07:20:39.783Z,100735.94
2023-09-01T07:23:41.569Z,100738.37
2023-09-01T07:26:43.338Z,100745.69
2023-09-01T07:29:45.385Z,100750.53
2023-09-01T07:32:47.112Z,100750.69
2023-09-01T07:35:52.325Z,100743.28
2023-09-01T07:38:54.116Z,100752.72
2023-09-01T07:41:57.133Z,100757.34
2023-09-01T07:45:01.713Z,100754.50
2023-09-01T07:48:18.967Z,100757.62
2023-09-01T07:51:23.085Z,100748.87
2023-09-01T07:54:24.825Z,100747.16
2023-09-01T07:57:26.812Z,100746.47
2023-09-01T08:00:28.451Z,100742.03
2023-09-01T08:03:30.256Z,100749.59
2023-09-01T08:06:32.563Z,100747.62
2023-09-01T08:09:34.591Z,100745.47
2023-09-01T08:12:39.208Z,100752.41
2023-09-01T08:15:41.878Z,100748.91
2023-09-01T08:18:44.020Z,100747.97
2023-09-01T08:21:45.678Z,100751.22
2023-09-01T08:24:47.680Z,100759.19
2023-09-01T08:27:49.634Z,100764.12
2023-09-01T08:30:51.699Z,100760.44
2023-09-01T08:33:54.072Z,100768.31
2023-09-01T08:36:58.699Z,100760.97
2023-09-01T08:40:00.907Z,100751.03
2023-09-01T08:43:03.736Z,100755.41
2023-09-01T08:49:11.394Z,100750.00
2023-09-01T08:52:13.554Z,100745.87
2023-09-01T08:55:17.163Z,100752.88
2023-09-01T08:58:24.565Z,100753.41
2023-09-01T09:01:26.302Z,100753.41
2023-09-01T09:04:28.597Z,100753.00
2023-09-01T09:07:30.626Z,100751.94
2023-09-01T09:10:39.016Z,100745.16
2023-09-01T09:13:41.567Z,100752.88
2023-09-01T09:16:54.241Z,100744.53
2023-09-01T09:19:57.144Z,100737.59
2023-09-01T09:22:59.524Z,100742.56
2023-09-01T09:26:06.232Z,100741.81
2023-09-01T09:29:09.959Z,100727.81
2023-09-01T09:32:23.072Z,100739.50
2023-09-01T09:35:25.144Z,100738.34
2023-09-01T09:38:42.371Z,100734.81
2023-09-01T09:41:46.539Z,100734.41
2023-09-01T09:44:48.515Z,100739.63
2023-09-01T09:47:53.820Z,100730.19
2023-09-01T09:50:59.715Z,100724.78
2023-09-01T09:54:08.874Z,100728.37
2023-09-01T09:57:21.512Z,100729.41
2023-09-01T10:00:29.188Z,100721.03
2023-09-01T10:03:32.885Z,100720.31
2023-09-01T10:06:37.461Z,100720.72
2023-09-01T10:09:39.542Z,100727.25
2023-09-01T10:12:42.052Z,100726.66
2023-09-01T10:15:49.847Z,100723.72
2023-09-01T10:18:51.763Z,100724.00
2023-09-01T10:21:53.607Z,100723.00
2023-09-01T10:25:25.309Z,100719.63
2023-09-01T10:28:30.287Z,100718.34
2023-09-01T10:31:33.890Z,100722.97
2023-09-01T10:34:38.080Z,100722.66
2023-09-01T10:37:39.752Z,100717.53
2023-09-01T10:40:45.583Z,100713.84
2023-09-01T10:43:55.520Z,100715.53
2023-09-01T10:47:17.156Z,100712.84
2023-09-01T10:50:19.420Z,100709.78
2023-09-01T10:53:32.085Z,100715.41
2023-09-01T10:56:52.043Z,100703.62
2023-09-01T10:59:53.736Z,100702.00
2023-09-01T11:03:25.252Z,100707.41
2023-09-01T11:06:26.898Z,100698.03
2023-09-01T11:09:50.082Z,100696.19
2023-09-01T11:12:51.811Z,100703.94
2023-09-01T11:15:54.173Z,100701.22
2023-09-01T11:19:01.902Z,100697.72
2023-09-01T11:22:04.107Z,100657.00
2023-09-01T11:25:09.715Z,100656.94
2023-09-01T11:28:13.119Z,100691.91
2023-09-01T11:31:15.753Z,100691.94
2023-09-01T11:34:17.650Z,100690.06
2023-09-01T11:37:35.347Z,100684.37
2023-09-01T11:40:37.638Z,100681.37
2023-09-01T11:43:40.763Z,100692.88
2023-09-01T11:46:42.751Z,100693.53
2023-09-01T11:49:45.067Z,100694.13
2023-09-01T11:52:51.372Z,100685.84
2023-09-01T11:55:54.025Z,100675.22
2023-09-01T11:58:57.451Z,100673.69
2023-09-01T12:02:00.326Z,100668.31
2023-09-01T12:05:02.354Z,100670.63
2023-09-01T12:08:05.392Z,100660.63
2023-09-01T12:11:07.386Z,100672.22
2023-09-01T12:14:23.507Z,100663.41
2023-09-01T12:17:25.531Z,100662.19
2023-09-01T12:20:27.669Z,100664.72
2023-09-01T12:23:32.459Z,100660.59
2023-09-01T12:26:34.203Z,100653.84
2023-09-01T12:29:36.023Z,100650.28
2023-09-01T12:32:38.284Z,100648.00
2023-09-01T12:35:41.933Z,100659.25
2023-09-01T12:38:43.646Z,100656.28
2023-09-01T12:41:45.357Z,100647.66
2023-09-01T12:44:47.342Z,100660.41
2023-09-01T12:47:49.066Z,100649.53
2023-09-01T12:51:09.475Z,100658.38
2023-09-01T12:54:18.962Z,100653.34
2023-09-01T12:57:21.814Z,100654.97
2023-09-01T13:00:24.148Z,100649.25
2023-09-01T13:03:26.003Z,100643.66
2023-09-01T13:06:28.350Z,100642.94
2023-09-01T13:09:30.044Z,100640.56
2023-09-01T13:12:32.188Z,100643.22
2023-09-01T13:15:34.015Z,100644.63
2023-09-01T13:18:36.311Z,100647.66
2023-09-01T13:21:37.974Z,100645.28
2023-09-01T13:24:39.709Z,100639.28
2023-09-01T13:27:41.469Z,100639.88
2023-09-01T13:30:43.449Z,100632.12
2023-09-01T13:33:45.143Z,100629.72
2023-09-01T13:36:47.914Z,100640.06
2023-09-01T13:39:49.950Z,100628.91
2023-09-01T13:42:51.659Z,100618.31
2023-09-01T13:45:54.949Z,100624.63
2023-09-01T13:48:59.568Z,100621.84
2023-09-01T13:52:01.340Z,100610.84
2023-09-01T13:55:03.576Z,100613.53
2023-09-01T13:58:05.236Z,100610.22
2023-09-01T14:01:07.022Z,100613.59
2023-09-01T14:04:08.817Z,100610.50
2023-09-01T14:07:10.633Z,100610.22
2023-09-01T14:10:12.467Z,100606.50
2023-09-01T14:13:14.363Z,100616.31
2023-09-01T14:16:16.367Z,100613.25
2023-09-01T14:19:18.794Z,100613.59
2023-09-01T14:22:20.858Z,100620.03
2023-09-01T14:25:22.718Z,100616.09
2023-09-01T14:28:24.712Z,100611.59
2023-09-01T14:31:26.872Z,100606.00
2023-09-01T14:34:28.743Z,100612.63
2023-09-01T14:37:30.522Z,100612.72
2023-09-01T14:40:33.128Z,100612.59
2023-09-01T14:43:34.789Z,100614.91
2023-09-01T14:46:36.565Z,100600.00
2023-09-01T14:49:38.530Z,100593.06
2023-09-01T14:52:40.285Z,100594.03
2023-09-01T14:55:42.104Z,100588.47
2023-09-01T14:58:43.777Z,100596.81
2023-09-01T15:01:45.493Z,100590.13
2023-09-01T15:04:47.583Z,100590.38
2023-09-01T15:07:49.446Z,100590.03
2023-09-01T15:10:53.250Z,100584.31
2023-09-01T15:13:57.402Z,100587.56
2023-09-01T15:16:59.074Z,100590.94
2023-09-01T15:20:00.710Z,100586.97
2023-09-01T15:23:02.397Z,100581.44
2023-09-01T15:26:04.955Z,100586.44
2023-09-01T15:29:06.726Z,100573.44
2023-09-01T15:32:08.843Z,100573.06
2023-09-01T15:35:22.118Z,100573.50
2023-09-01T15:38:27.073Z,100577.91
2023-09-01T15:41:28.739Z,100583.34
2023-09-01T15:44:31.234Z,100582.47
2023-09-01T15:47:32.905Z,100578.78
2023-09-01T15:50:44.868Z,100575.19
2023-09-01T15:53:47.702Z,100572.97
2023-09-01T15:56:49.600Z,100572.63
2023-09-01T15:59:52.486Z,100560.44
2023-09-01T16:02:54.203Z,100569.28
2023-09-01T16:05:58.726Z,100567.62
2023-09-01T16:09:00.367Z,100564.78
2023-09-01T16:12:04.350Z,100566.94
2023-09-01T16:15:07.118Z,100566.91
2023-09-01T16:18:09.314Z,100562.09
2023-09-01T16:21:11.356Z,100570.53
2023-09-01T16:24:12.961Z,100569.37
2023-09-01T16:27:15.091Z,100568.97
2023-09-01T16:30:17.007Z,100565.81
2023-09-01T16:33:19.237Z,100567.06
2023-09-01T16:36:20.963Z,100570.25
2023-09-01T16:39:22.700Z,100571.28
2023-09-01T16:42:24.417Z,100562.56
2023-09-01T16:45:26.150Z,100568.59
2023-09-01T16:48:27.845Z,100563.22
2023-09-01T16:51:29.604Z,100570.25
2023-09-01T16:54:31.359Z,100560.47
2023-09-01T16:57:33.212Z,100574.62
2023-09-01T17:00:35.053Z,100570.97
2023-09-01T17:03:36.834Z,100573.88
2023-09-01T17:06:41.774Z,100578.47
2023-09-01T17:09:43.977Z,100578.00
2023-09-01T17:12:48.570Z,100577.88
2023-09-01T17:15:50.551Z,100578.66
2023-09-01T17:18:52.211Z,100583.78
2023-09-01T17:21:53.993Z,100589.91
2023-09-01T17:24:56.004Z,100588.41
2023-09-01T17:27:58.001Z,100595.97
2023-09-01T17:30:59.788Z,100586.75
2023-09-01T17:34:01.560Z,100593.72
2023-09-01T17:37:03.346Z,100593.88
2023-09-01T17:40:06.380Z,100595.66
2023-09-01T17:43:10.221Z,100602.13
2023-09-01T17:46:11.961Z,100601.16
2023-09-01T17:49:14.296Z,100603.81
2023-09-01T17:52:16.603Z,100611.91
2023-09-01T17:55:20.954Z,100610.75
2023-09-01T17:58:22.735Z,100577.41
2023-09-01T18:01:25.316Z,100618.94
2023-09-01T18:04:27.090Z,100621.84
2023-09-01T18:07:28.991Z,100622.53
2023-09-01T18:10:31.866Z,100626.84
2023-09-01T18:13:34.433Z,100628.62
2023-09-01T18:16:37.554Z,100637.34
2023-09-01T18:19:39.460Z,100635.28
2023-09-01T18:22:46.315Z,100627.53
2023-09-01T18:25:48.216Z,100642.59
2023-09-01T18:28:50.089Z,100638.66
2023-09-01T18:31:55.932Z,100650.47
2023-09-01T18:34:59.861Z,100649.81
2023-09-01T18:38:01.550Z,100649.44
2023-09-01T18:41:03.427Z,100645.28
2023-09-01T18:44:07.110Z,100654.78
2023-09-01T18:47:08.860Z,100656.94
2023-09-01T18:50:12.546Z,100654.31
2023-09-01T18:53:14.664Z,100657.75
2023-09-01T18:56:20.244Z,100658.81
2023-09-01T18:59:22.422Z,100660.97
2023-09-01T19:02:37.490Z,100662.28
2023-09-01T19:05:41.293Z,100662.38
2023-09-01T19:08:43.383Z,100662.22
2023-09-01T19:11:45.862Z,100663.75
2023-09-01T19:14:47.822Z,100665.06
2023-09-01T19:17:50.771Z,100660.03
2023-09-01T19:20:53.156Z,100661.34
2023-09-01T19:23:55.729Z,100660.81
2023-09-01T19:26:59.141Z,100657.72
2023-09-01T19:30:01.302Z,100661.34
2023-09-01T19:33:04.040Z,100665.84
2023-09-01T19:36:10.334Z,100668.81
2023-09-01T19:39:12.533Z,100671.16
2023-09-01T19:42:16.067Z,100666.97
2023-09-01T19:45:27.943Z,100675.03
2023-09-01T19:48:32.620Z,100674.06
2023-09-01T19:51:38.156Z,100672.00
2023-09-01T19:54:40.095Z,100671.25
2023-09-01T19:57:42.594Z,100671.56
2023-09-01T20:00:45.565Z,100660.66
2023-09-01T20:03:47.377Z,100669.84
2023-09-01T20:06:49.113Z,100665.03
2023-09-01T20:09:50.838Z,100680.03
2023-09-01T20:12:52.903Z,100678.13
2023-09-01T20:15:54.899Z,100683.22
2023-09-01T20:18:57.659Z,100678.47
2023-09-01T20:21:59.628Z,100678.06
2023-09-01T20:25:03.698Z,100680.87
2023-09-01T20:28:05.952Z,100688.84
2023-09-01T20:31:07.763Z,100695.63
2023-09-01T20:34:09.615Z,100694.56
2023-09-01T20:37:11.702Z,100691.81
2023-09-01T20:40:14.272Z,100688.03
2023-09-01T20:43:17.439Z,100690.75
2023-09-01T20:46:19.437Z,100696.88
2023-09-01T20:49:21.378Z,100691.81
2023-09-01T20:52:23.465Z,100687.41
2023-09-01T20:55:25.629Z,100681.06
2023-09-01T20:58:30.582Z,100692.09
2023-09-01T21:01:32.753Z,100670.28
2023-09-01T21:04:36.856Z,100701.78
2023-09-01T21:07:39.819Z,100689.62
2023-09-01T21:10:41.543Z,100695.78
2023-09-01T21:13:43.304Z,100701.69
2023-09-01T21:16:45.146Z,100696.88
2023-09-01T21:19:46.965Z,100709.09
2023-09-01T21:22:48.710Z,100704.47
2023-09-01T21:25:50.449Z,100709.53
2023-09-01T21:28:52.258Z,100723.91
2023-09-01T21:31:54.482Z,100714.84
2023-09-01T21:34:56.842Z,100714.03
2023-09-01T21:37:58.649Z,100714.28
2023-09-01T21:41:00.373Z,100715.37
2023-09-01T21:44:02.575Z,100722.13
2023-09-01T21:47:05.041Z,100711.19
2023-09-01T21:50:07.687Z,100711.03
2023-09-01T21:53:09.453Z,100708.50
2023-09-01T21:56:11.261Z,100707.66
2023-09-01T21:59:13.024Z,100708.09
2023-09-01T22:02:14.937Z,100719.47
2023-09-01T22:05:16.732Z,100720.12
2023-09-01T22:08:18.671Z,100723.31
2023-09-01T22:11:20.345Z,100721.63
2023-09-01T22:14:22.029Z,100718.94
2023-09-01T22:17:23.767Z,100725.84
2023-09-01T22:20:25.850Z,100730.94
2023-09-01T22:23:27.698Z,100724.41
2023-09-01T22:26:29.391Z,100728.66
2023-09-01T22:29:31.342Z,100731.38
2023-09-01T22:32:33.455Z,100726.34
2023-09-01T22:35:35.518Z,100744.25
2023-09-01T22:38:37.270Z,100748.22
2023-09-01T22:41:38.985Z,100706.62
2023-09-01T22:44:40.725Z,100744.69
2023-09-01T22:47:42.564Z,100745.72
2023-09-01T22:50:44.554Z,100748.25
2023-09-01T22:53:46.919Z,100750.13
2023-09-01T22:56:48.539Z,100744.69
2023-09-01T22:59:52.615Z,100745.50
2023-09-01T23:02:54.732Z,100744.88
2023-09-01T23:05:56.530Z,100748.47
2023-09-01T23:08:58.636Z,100735.81
2023-09-01T23:12:00.418Z,100738.97
2023-09-01T23:15:02.203Z,100737.94
2023-09-01T23:18:04.247Z,100736.88
2023-09-01T23:21:05.975Z,100736.88
2023-09-01T23:24:07.977Z,100741.28
2023-09-01T23:27:09.607Z,100743.00
2023-09-01T23:30:11.966Z,100745.25
2023-09-01T23:33:13.831Z,100744.03
2023-09-01T23:36:15.905Z,100748.87
2023-09-01T23:39:17.959Z,100753.66
2023-09-01T23:42:19.663Z,100751.38
2023-09-01T23:45:21.440Z,100746.97
2023-09-01T23:48:23.179Z,100745.47
2023-09-01T23:51:24.871Z,100741.28
2023-09-01T23:54:26.634Z,100737.94
2023-09-01T23:57:28.288Z,100737.53
